Time;durP1;ratioP1;P1;durP2;ratioP2;P2;SDS_P1;SDS_P2;PMS_P1;PMS_P2;Temp;Humidity;BMP_temperature;BMP_pressure;BME280_temperature;BME280_humidity;BME280_pressure;Samples;Min_cycle;Max_cycle;Signal;HPM_P1;HPM_P2
2023/04/27 00:01:13;;;;;;;1.48;1.08;;;;;;;5.76;69.20;102227.59;4997611;28;96762;-31
2023/04/27 00:03:40;;;;;;;2.65;1.15;;;;;;;5.74;68.86;102226.75;4995730;28;101056;-31
2023/04/27 00:06:05;;;;;;;1.67;1.10;;;;;;;5.71;68.95;102232.19;4995472;28;100751;-30
2023/04/27 00:08:30;;;;;;;2.05;1.30;;;;;;;5.73;68.88;102238.44;4997394;28;96487;-32
2023/04/27 00:10:56;;;;;;;1.17;1.00;;;;;;;5.68;68.67;102227.75;4997341;28;96891;-30
2023/04/27 00:13:21;;;;;;;1.50;1.00;;;;;;;5.68;68.63;102225.06;4997113;28;97865;-31
2023/04/27 00:15:47;;;;;;;1.10;0.82;;;;;;;5.67;68.81;102225.09;4995856;28;99049;-30
2023/04/27 00:18:13;;;;;;;2.50;1.42;;;;;;;5.67;69.48;102227.78;4997101;28;96664;-31
2023/04/27 00:20:39;;;;;;;1.30;1.17;;;;;;;5.63;69.27;102229.66;4995924;28;96578;-30
2023/04/27 00:23:04;;;;;;;1.08;0.95;;;;;;;5.61;69.58;102227.91;4996222;28;99631;-30
2023/04/27 00:25:30;;;;;;;1.08;0.90;;;;;;;5.60;69.57;102237.78;4996949;28;97760;-31
2023/04/27 00:27:55;;;;;;;6.18;1.50;;;;;;;5.54;69.07;102216.38;4996752;28;96684;-31
2023/04/27 00:30:20;;;;;;;1.35;0.95;;;;;;;5.58;69.08;102227.94;4996980;28;96787;-30
2023/04/27 00:32:45;;;;;;;1.17;0.85;;;;;;;5.52;69.90;102232.53;4996591;28;99238;-30
2023/04/27 00:35:11;;;;;;;1.08;0.93;;;;;;;5.47;70.13;102229.03;4996360;28;97719;-31
2023/04/27 00:37:36;;;;;;;0.88;0.77;;;;;;;5.49;70.10;102226.34;4996936;28;96499;-30
2023/04/27 00:40:05;;;;;;;1.38;1.20;;;;;;;5.45;70.02;102225.47;4997269;28;96755;-31
2023/04/27 00:42:30;;;;;;;2.00;1.58;;;;;;;5.43;69.07;102223.75;4996399;28;98035;-30
2023/04/27 00:44:57;;;;;;;1.70;1.38;;;;;;;5.40;69.95;102216.63;4995425;28;97316;-31
2023/04/27 00:47:23;;;;;;;1.67;1.30;;;;;;;5.41;69.76;102214.81;4994873;28;96544;-30
2023/04/27 00:49:49;;;;;;;1.85;1.02;;;;;;;5.40;69.77;102211.25;4995108;28;96854;-32
2023/04/27 00:52:14;;;;;;;1.88;1.42;;;;;;;5.41;70.52;102210.34;4996854;28;97309;-30
2023/04/27 00:54:40;;;;;;;2.28;1.38;;;;;;;5.36;70.28;102206.84;4995953;28;99192;-30
2023/04/27 00:57:05;;;;;;;1.67;0.98;;;;;;;5.33;70.34;102212.28;4996748;28;96600;-31
2023/04/27 00:59:31;;;;;;;1.60;1.00;;;;;;;5.33;69.68;102217.66;4996550;28;96787;-31
2023/04/27 01:01:56;;;;;;;1.70;0.88;;;;;;;5.30;70.22;102218.59;4996336;28;98087;-31
2023/04/27 01:04:22;;;;;;;1.35;0.90;;;;;;;5.26;70.70;102207.94;4996544;28;97745;-31
2023/04/27 01:06:48;;;;;;;3.90;1.50;;;;;;;5.26;71.20;102224.91;4996234;28;96492;-31
2023/04/27 01:09:15;;;;;;;1.27;0.98;;;;;;;5.20;71.31;102211.63;4994982;28;96905;-31
2023/04/27 01:11:40;;;;;;;1.85;0.85;;;;;;;5.18;70.78;102216.13;4994238;28;100811;-31
2023/04/27 01:14:06;;;;;;;2.10;1.10;;;;;;;5.14;71.62;102209.03;4996017;28;97314;-30
2023/04/27 01:16:32;;;;;;;14.25;1.35;;;;;;;5.10;71.53;102205.53;4994777;28;96589;-30
2023/04/27 01:18:58;;;;;;;1.20;0.70;;;;;;;5.07;71.43;102204.66;4994884;28;96754;-32
2023/04/27 01:21:25;;;;;;;1.20;1.02;;;;;;;5.02;71.82;102195.81;4995811;28;99368;-31
2023/04/27 01:23:50;;;;;;;1.80;0.90;;;;;;;5.00;71.47;102193.13;4994360;28;101141;-31
2023/04/27 01:26:15;;;;;;;1.33;0.75;;;;;;;5.01;71.86;102194.94;4995646;28;96588;-30
2023/04/27 01:28:42;;;;;;;1.80;1.50;;;;;;;5.01;71.75;102197.63;4996604;28;96725;-30
2023/04/27 01:31:08;;;;;;;1.60;1.05;;;;;;;5.02;71.88;102191.31;4993926;28;100952;-30
2023/04/27 01:33:34;;;;;;;1.75;1.23;;;;;;;5.01;71.01;102188.69;4994181;28;99078;-31
2023/04/27 01:35:59;;;;;;;1.38;1.02;;;;;;;4.98;71.90;102191.38;4995066;28;96859;-31
2023/04/27 01:38:24;;;;;;;0.82;0.70;;;;;;;4.97;71.85;102193.19;4995936;28;96819;-31
2023/04/27 01:40:50;;;;;;;1.95;1.45;;;;;;;4.94;72.31;102190.56;4994138;28;101166;-31
2023/04/27 01:43:15;;;;;;;1.15;0.80;;;;;;;4.90;72.05;102189.72;4995718;28;97869;-30
2023/04/27 01:45:40;;;;;;;0.70;0.70;;;;;;;4.92;71.79;102194.19;4995917;28;96556;-31
2023/04/27 01:48:06;;;;;;;1.45;0.98;;;;;;;4.89;71.88;102193.31;4995495;28;96797;-30
2023/04/27 01:50:31;;;;;;;2.42;1.70;;;;;;;4.86;71.99;102188.00;4995406;28;97808;-31
2023/04/27 01:52:56;;;;;;;1.55;1.02;;;;;;;4.85;71.85;102183.53;4995935;28;97262;-30
2023/04/27 01:55:22;;;;;;;1.20;1.00;;;;;;;4.84;71.94;102187.16;4995781;28;96475;-33
2023/04/27 01:57:47;;;;;;;1.55;0.95;;;;;;;4.85;72.26;102199.66;4995574;28;96764;-32
2023/04/27 02:00:13;;;;;;;1.08;0.85;;;;;;;4.81;72.81;102197.03;4994606;28;99325;-31
2023/04/27 02:02:38;;;;;;;3.67;1.17;;;;;;;4.83;71.73;102197.91;4995351;28;97382;-31
2023/04/27 02:05:04;;;;;;;0.98;0.88;;;;;;;4.84;71.87;102183.59;4995665;28;96562;-30
2023/04/27 02:07:29;;;;;;;1.50;0.85;;;;;;;4.84;71.89;102186.28;4995474;28;96801;-30
2023/04/27 02:09:54;;;;;;;1.02;0.60;;;;;;;4.83;72.46;102173.75;4994913;28;99348;-30
2023/04/27 02:12:20;;;;;;;1.92;1.42;;;;;;;4.80;72.49;102176.50;4994973;28;106935;-30
2023/04/27 02:14:45;;;;;;;2.45;1.33;;;;;;;4.79;72.45;102172.00;4995297;28;96601;-31
2023/04/27 02:17:10;;;;;;;7.80;1.55;;;;;;;4.79;72.23;102167.56;4995565;28;96812;-32
2023/04/27 02:19:36;;;;;;;1.23;1.13;;;;;;;4.79;72.46;102166.63;4994916;28;97271;-30
2023/04/27 02:22:02;;;;;;;1.08;0.98;;;;;;;4.78;72.55;102172.94;4995126;28;97707;-30
2023/04/27 02:24:27;;;;;;;1.48;0.93;;;;;;;4.78;72.24;102173.81;4993225;28;96570;-30
2023/04/27 02:26:53;;;;;;;1.15;0.90;;;;;;;4.75;73.17;102163.13;4995364;28;96712;-30
2023/04/27 02:29:18;;;;;;;0.65;0.57;;;;;;;4.74;73.19;102165.84;4994886;28;97976;-30
2023/04/27 02:31:43;;;;;;;4.38;0.93;;;;;;;4.73;73.32;102172.13;4994368;28;99562;-31
2023/04/27 02:34:09;;;;;;;0.88;0.80;;;;;;;4.71;72.38;102169.47;4994484;28;96566;-32
2023/04/27 02:36:34;;;;;;;1.48;1.10;;;;;;;4.70;72.60;102161.44;4995430;28;96422;-30
2023/04/27 02:39:00;;;;;;;3.15;1.10;;;;;;;4.66;71.69;102166.84;4994101;28;97863;-30
2023/04/27 02:41:27;;;;;;;1.02;0.80;;;;;;;4.66;72.11;102169.53;4994804;28;99013;-31
2023/04/27 02:43:52;;;;;;;3.95;0.98;;;;;;;4.65;72.16;102162.41;4994874;28;96582;-31
2023/04/27 02:46:18;;;;;;;0.73;0.65;;;;;;;4.65;72.55;102167.75;4995414;28;96756;-30
2023/04/27 02:48:43;;;;;;;1.77;1.25;;;;;;;4.62;72.11;102162.47;4994392;28;97333;-31
2023/04/27 02:51:08;;;;;;;0.93;0.88;;;;;;;4.62;72.36;102165.16;4994388;28;99102;-32
2023/04/27 02:53:34;;;;;;;1.40;1.13;;;;;;;4.60;72.83;102175.00;4994728;28;96701;-30
2023/04/27 02:55:59;;;;;;;1.50;1.25;;;;;;;4.60;72.11;102176.78;4994922;28;96797;-31
2023/04/27 02:58:25;;;;;;;1.05;0.57;;;;;;;4.55;72.72;102167.91;4994439;28;98808;-31
2023/04/27 03:00:56;;;;;;;0.63;0.63;;;;;;;4.49;73.44;102168.91;4994339;28;99279;-30
2023/04/27 03:03:22;;;;;;;1.30;0.95;;;;;;;4.50;73.09;102177.84;4994683;28;96665;-30
2023/04/27 03:05:48;;;;;;;2.05;1.15;;;;;;;4.49;73.29;102162.66;4993659;28;96795;-31
2023/04/27 03:08:13;;;;;;;5.07;1.23;;;;;;;4.53;72.84;102172.41;4994344;28;99304;-30
2023/04/27 03:10:39;;;;;;;2.38;0.70;;;;;;;4.51;73.60;102168.91;4994336;28;97824;-30
2023/04/27 03:13:04;;;;;;;1.40;0.85;;;;;;;4.50;73.09;102173.34;4994083;28;96557;-31
2023/04/27 03:15:30;;;;;;;0.85;0.77;;;;;;;4.52;72.52;102174.22;4993254;28;96775;-31
2023/04/27 03:17:55;;;;;;;0.98;0.85;;;;;;;4.53;72.83;102169.72;4993973;28;99550;-31
2023/04/27 03:20:21;;;;;;;2.53;1.23;;;;;;;4.49;72.50;102173.41;4994006;28;99147;-31
2023/04/27 03:22:46;;;;;;;1.17;1.08;;;;;;;4.47;72.23;102170.72;4994378;28;96575;-31
2023/04/27 03:25:11;;;;;;;1.73;1.20;;;;;;;4.47;73.04;102178.78;4994766;28;96656;-31
2023/04/27 03:27:37;;;;;;;0.47;0.40;;;;;;;4.45;73.10;102180.59;4994214;28;97966;-31
2023/04/27 03:30:03;;;;;;;2.78;1.30;;;;;;;4.47;72.93;102176.09;4994273;28;97901;-32
2023/04/27 03:32:29;;;;;;;1.35;1.02;;;;;;;4.41;72.85;102173.47;4993074;28;96604;-32
2023/04/27 03:34:55;;;;;;;0.95;0.80;;;;;;;4.41;72.29;102176.16;4992544;28;96871;-31
2023/04/27 03:37:20;;;;;;;2.50;1.48;;;;;;;4.41;72.79;102177.06;4992186;28;101030;-31
2023/04/27 03:39:46;;;;;;;1.40;0.93;;;;;;;4.38;73.25;102181.59;4994002;28;97361;-31
2023/04/27 03:42:11;;;;;;;1.88;1.00;;;;;;;4.32;73.38;102169.16;4994402;28;96690;-31
2023/04/27 03:44:36;;;;;;;0.45;0.45;;;;;;;4.34;73.81;102182.53;4994484;28;96713;-30
2023/04/27 03:47:07;;;;;;;0.73;0.60;;;;;;;4.36;72.85;102184.31;4993767;28;97872;-30
2023/04/27 03:49:32;;;;;;;2.80;1.38;;;;;;;4.34;73.13;102188.81;4993946;28;101217;-31
2023/04/27 03:51:58;;;;;;;1.50;1.15;;;;;;;4.34;73.77;102187.88;4997534;28;96549;-32
2023/04/27 03:54:23;;;;;;;7.15;1.80;;;;;;;4.34;73.57;102190.56;4997768;28;96786;-32
2023/04/27 03:56:48;;;;;;;0.70;0.60;;;;;;;4.33;73.39;102186.13;4997231;28;98460;-31
2023/04/27 03:59:14;;;;;;;6.20;0.98;;;;;;;4.31;73.78;102190.63;4997333;28;97173;-31
2023/04/27 04:01:40;;;;;;;2.05;1.20;;;;;;;4.29;73.73;102197.81;4995421;28;96596;-31
2023/04/27 04:04:05;;;;;;;2.22;1.30;;;;;;;4.29;73.79;102195.13;4997222;28;97217;-32
2023/04/27 04:06:31;;;;;;;1.63;0.95;;;;;;;4.23;73.05;102196.97;4997156;28;97878;-30
2023/04/27 04:08:57;;;;;;;1.75;1.35;;;;;;;4.24;73.53;102193.41;4997236;28;97331;-32
2023/04/27 04:11:22;;;;;;;1.48;1.27;;;;;;;4.28;73.64;102201.41;4995938;28;96647;-31
2023/04/27 04:13:47;;;;;;;1.35;1.10;;;;;;;4.22;73.11;102192.53;4997371;28;96748;-30
2023/04/27 04:16:13;;;;;;;2.25;1.45;;;;;;;4.22;73.33;102197.03;4997146;28;96849;-31
2023/04/27 04:18:38;;;;;;;0.47;0.45;;;;;;;4.22;73.84;102199.69;4997459;28;97767;-30
2023/04/27 04:21:04;;;;;;;5.93;1.23;;;;;;;4.20;74.02;102205.06;4995926;28;96751;-30
2023/04/27 04:23:29;;;;;;;1.40;0.95;;;;;;;4.14;73.79;102191.75;4995798;28;96916;-31
2023/04/27 04:25:55;;;;;;;2.38;1.40;;;;;;;4.15;72.81;102196.22;4996328;28;97818;-31
2023/04/27 04:28:21;;;;;;;1.55;1.10;;;;;;;4.15;73.64;102206.94;4995329;28;101098;-30
2023/04/27 04:30:46;;;;;;;1.75;1.33;;;;;;;4.16;73.42;102207.81;4995169;28;96788;-30
2023/04/27 04:33:12;;;;;;;1.98;1.23;;;;;;;4.14;74.14;102202.47;4997112;28;96911;-31
2023/04/27 04:35:38;;;;;;;1.05;0.85;;;;;;;4.15;73.36;102201.56;4996597;28;97917;-31
2023/04/27 04:38:04;;;;;;;1.95;1.30;;;;;;;4.14;74.47;102204.25;4995316;28;100701;-31
2023/04/27 04:40:30;;;;;;;2.17;1.08;;;;;;;4.14;73.96;102210.50;4995574;28;96786;-32
2023/04/27 04:42:55;;;;;;;1.92;1.42;;;;;;;4.13;74.00;102207.88;4997103;28;96925;-31
2023/04/27 04:45:21;;;;;;;0.68;0.68;;;;;;;4.13;73.43;102207.88;4996442;28;97890;-32
2023/04/27 04:47:48;;;;;;;0.80;0.75;;;;;;;4.13;74.23;102214.09;4996613;28;97165;-31
2023/04/27 04:50:13;;;;;;;1.17;1.05;;;;;;;4.15;73.75;102224.81;4994714;28;96698;-31
2023/04/27 04:52:39;;;;;;;1.50;1.13;;;;;;;4.17;73.72;102223.91;4996438;28;96539;-30
2023/04/27 04:55:04;;;;;;;6.35;1.55;;;;;;;4.15;73.85;102228.38;4995897;28;99325;-31
2023/04/27 04:57:30;;;;;;;0.77;0.70;;;;;;;4.17;73.53;102221.22;4996069;28;99280;-31
2023/04/27 04:59:56;;;;;;;1.73;1.40;;;;;;;4.20;73.90;102222.97;4994970;28;96609;-32
2023/04/27 05:02:21;;;;;;;3.38;1.02;;;;;;;4.18;73.45;102220.28;4995922;28;96526;-31
2023/04/27 05:04:47;;;;;;;2.50;1.23;;;;;;;4.22;73.82;102224.72;4996290;28;97899;-30
2023/04/27 05:07:12;;;;;;;2.03;1.40;;;;;;;4.24;73.33;102222.91;4996394;28;99082;-32
2023/04/27 05:09:38;;;;;;;1.42;0.90;;;;;;;4.22;73.49;102223.84;4996337;28;96598;-30
2023/04/27 05:12:03;;;;;;;3.85;1.50;;;;;;;4.25;73.62;102230.03;4996478;28;96747;-31
2023/04/27 05:14:29;;;;;;;1.27;0.93;;;;;;;4.28;73.92;102237.16;4995313;28;97934;-31
2023/04/27 05:16:54;;;;;;;1.77;1.40;;;;;;;4.28;73.25;102233.59;4996149;28;97989;-31
2023/04/27 05:19:20;;;;;;;3.33;1.45;;;;;;;4.28;73.31;102242.50;4996261;28;96481;-32
2023/04/27 05:21:45;;;;;;;0.90;0.82;;;;;;;4.33;73.29;102245.13;4996382;28;96960;-31
2023/04/27 05:24:14;;;;;;;3.03;1.58;;;;;;;4.36;73.01;102247.78;4995853;28;99020;-31
2023/04/27 05:26:42;;;;;;;3.47;1.42;;;;;;;4.38;73.65;102245.97;4994473;28;100949;-32
2023/04/27 05:29:07;;;;;;;2.33;1.10;;;;;;;4.40;73.29;102234.31;4995949;28;96753;-30
2023/04/27 05:31:32;;;;;;;2.97;1.75;;;;;;;4.47;73.15;102237.78;4996264;28;96728;-30
2023/04/27 05:33:58;;;;;;;1.02;0.90;;;;;;;4.43;73.18;102234.28;4995554;28;97372;-31
2023/04/27 05:36:23;;;;;;;3.65;1.63;;;;;;;4.48;73.39;102228.81;4995942;28;97723;-30
2023/04/27 05:38:48;;;;;;;2.13;1.38;;;;;;;4.54;72.62;102238.59;4995542;28;96634;-31
2023/04/27 05:41:14;;;;;;;2.80;1.15;;;;;;;4.59;72.83;102234.94;4996011;28;96745;-31
2023/04/27 05:43:39;;;;;;;1.73;1.23;;;;;;;4.57;73.49;102230.50;4995308;28;99572;-31
2023/04/27 05:46:05;;;;;;;1.25;0.98;;;;;;;4.60;73.87;102223.31;4995395;28;98533;-30
2023/04/27 05:48:30;;;;;;;1.33;1.05;;;;;;;4.66;72.97;102227.69;4996005;28;97113;-31
2023/04/27 05:51:00;;;;;;;1.17;1.00;;;;;;;4.78;72.50;102234.66;4995843;28;96761;-32
2023/04/27 05:53:26;;;;;;;1.33;1.13;;;;;;;4.85;73.63;102230.97;4995265;28;97789;-31
2023/04/27 05:55:51;;;;;;;1.77;1.33;;;;;;;4.98;72.88;102248.69;4994393;28;100843;-30
2023/04/27 05:58:17;;;;;;;2.58;1.02;;;;;;;5.06;72.08;102240.50;4995354;28;96685;-32
2023/04/27 06:00:42;;;;;;;2.40;1.45;;;;;;;5.20;72.18;102232.22;4995862;28;96694;-31
2023/04/27 06:03:08;;;;;;;1.10;0.93;;;;;;;5.31;72.23;102243.66;4994996;28;98053;-30
2023/04/27 06:05:33;;;;;;;0.60;0.60;;;;;;;5.36;72.39;102243.56;4995135;28;99252;-32
2023/04/27 06:07:59;;;;;;;0.82;0.80;;;;;;;5.50;71.09;102245.09;4995425;28;96901;-31
2023/04/27 06:10:24;;;;;;;4.25;1.40;;;;;;;5.64;70.79;102246.66;4995215;28;96793;-30
2023/04/27 06:12:49;;;;;;;2.83;1.15;;;;;;;5.70;70.55;102246.56;4993597;28;105043;-30
2023/04/27 06:15:15;;;;;;;0.93;0.75;;;;;;;5.83;70.47;102248.06;4993703;28;101160;-31
2023/04/27 06:17:42;;;;;;;1.23;1.13;;;;;;;5.90;70.23;102244.34;4995500;28;96642;-30
2023/04/27 06:20:08;;;;;;;2.47;1.23;;;;;;;6.01;70.21;102243.31;4994392;28;96789;-30
2023/04/27 06:22:38;;;;;;;2.08;0.77;;;;;;;6.09;69.66;102241.34;4993546;28;101469;-30
2023/04/27 06:25:04;;;;;;;1.50;1.08;;;;;;;6.21;69.11;102240.19;4993567;28;98839;-30
2023/04/27 06:27:30;;;;;;;1.23;0.93;;;;;;;6.29;68.62;102238.22;4993263;28;96713;-30
2023/04/27 06:29:55;;;;;;;1.00;0.65;;;;;;;6.33;68.46;102237.25;4994939;28;96783;-31
2023/04/27 06:32:20;;;;;;;2.83;1.27;;;;;;;6.36;67.78;102235.38;4994601;28;104011;-31
2023/04/27 06:34:46;;;;;;;1.42;1.10;;;;;;;6.42;67.58;102238.88;4993971;28;110559;-32
2023/04/27 06:37:13;;;;;;;3.60;1.70;;;;;;;6.64;67.62;102234.75;4993682;28;96721;-32
2023/04/27 06:39:39;;;;;;;0.95;0.77;;;;;;;6.78;66.52;102227.25;4994977;28;96820;-32
2023/04/27 06:42:04;;;;;;;1.60;1.13;;;;;;;6.83;66.00;102226.25;4994190;28;99692;-33
2023/04/27 06:44:30;;;;;;;1.30;0.90;;;;;;;7.00;65.74;102233.00;4994850;28;99337;-32
2023/04/27 06:46:55;;;;;;;1.65;0.98;;;;;;;7.23;65.44;102228.84;4995167;28;96533;-31
2023/04/27 06:49:20;;;;;;;5.60;1.60;;;;;;;7.43;64.70;102229.22;4994849;28;96992;-31
2023/04/27 06:51:47;;;;;;;0.98;0.77;;;;;;;7.55;64.36;102233.41;4994077;28;99014;-33
2023/04/27 06:54:13;;;;;;;0.45;0.45;;;;;;;7.58;62.62;102236.03;4992919;28;100944;-31
2023/04/27 06:56:38;;;;;;;2.70;1.33;;;;;;;7.75;63.72;102237.38;4994541;28;96670;-31
2023/04/27 06:59:03;;;;;;;2.03;1.27;;;;;;;7.91;62.97;102240.53;4994610;28;96763;-31
2023/04/27 07:01:29;;;;;;;1.85;0.52;;;;;;;7.84;61.18;102232.63;4994430;28;98979;-30
2023/04/27 07:03:54;;;;;;;1.58;0.88;;;;;;;7.79;62.09;102233.66;4994453;28;97736;-30
2023/04/27 07:06:21;;;;;;;3.58;1.00;;;;;;;7.88;61.92;102226.19;4994811;28;96622;-32
2023/04/27 07:08:46;;;;;;;0.70;0.60;;;;;;;7.96;62.08;102231.41;4995121;28;96755;-30
2023/04/27 07:11:12;;;;;;;1.88;1.00;;;;;;;8.15;61.95;102223.66;4994280;28;98438;-30
2023/04/27 07:13:37;;;;;;;0.70;0.65;;;;;;;8.33;61.37;102224.91;4994226;28;99471;-32
2023/04/27 07:16:03;;;;;;;2.00;1.27;;;;;;;8.55;60.19;102230.56;4994148;28;97046;-30
2023/04/27 07:18:28;;;;;;;2.90;1.23;;;;;;;8.69;61.39;102222.91;4994357;28;97845;-31
2023/04/27 07:20:54;;;;;;;0.95;0.68;;;;;;;8.74;59.18;102217.38;4994427;28;97872;-30
2023/04/27 07:23:20;;;;;;;0.60;0.55;;;;;;;8.83;58.33;102225.19;4992925;28;100951;-31
2023/04/27 07:25:45;;;;;;;1.00;0.68;;;;;;;8.77;58.23;102224.50;4997651;28;96721;-30
2023/04/27 07:28:11;;;;;;;1.13;0.77;;;;;;;8.90;59.11;102226.75;4997795;28;97059;-30
2023/04/27 07:30:37;;;;;;;1.95;1.00;;;;;;;8.88;59.59;102225.91;4996056;28;99020;-31
2023/04/27 07:33:03;;;;;;;5.68;0.95;;;;;;;9.00;59.92;102230.03;4996534;28;100855;-31
2023/04/27 07:35:28;;;;;;;0.77;0.68;;;;;;;9.18;58.83;102227.69;4997652;28;96651;-31
2023/04/27 07:37:55;;;;;;;0.95;0.63;;;;;;;9.40;59.42;102217.88;4998068;28;96745;-31
2023/04/27 07:40:23;;;;;;;5.10;1.35;;;;;;;9.39;59.31;102218.84;4995347;28;100979;-30
2023/04/27 07:42:48;;;;;;;1.08;0.65;;;;;;;9.50;58.81;102221.16;4995979;28;99973;-31
2023/04/27 07:45:16;;;;;;;0.68;0.60;;;;;;;9.61;58.41;102224.38;4997892;28;96740;-30
2023/04/27 07:47:42;;;;;;;1.25;0.88;;;;;;;9.67;57.91;102221.44;4996415;28;96799;-31
2023/04/27 07:50:09;;;;;;;1.48;0.98;;;;;;;9.65;56.07;102215.19;4995953;28;101157;-32
2023/04/27 07:52:34;;;;;;;1.35;1.00;;;;;;;9.72;57.95;102223.97;4995789;28;100633;-31
2023/04/27 07:55:00;;;;;;;3.00;1.05;;;;;;;9.81;58.88;102225.47;4997072;28;96626;-32
2023/04/27 07:57:26;;;;;;;1.48;0.85;;;;;;;9.81;58.37;102220.06;4997989;28;96730;-31
2023/04/27 07:59:52;;;;;;;1.60;0.80;;;;;;;9.84;58.25;102228.94;4997308;28;97913;-31
2023/04/27 08:02:17;;;;;;;2.08;0.90;;;;;;;9.86;57.70;102226.19;4996964;28;99572;-30
2023/04/27 08:04:43;;;;;;;2.10;1.13;;;;;;;10.10;57.89;102219.88;4997064;28;97090;-32
2023/04/27 08:07:08;;;;;;;1.23;0.85;;;;;;;10.22;56.76;102207.69;4997536;28;96763;-31
2023/04/27 08:09:33;;;;;;;2.28;0.82;;;;;;;10.23;55.67;102216.72;4996963;28;97908;-31
2023/04/27 08:11:59;;;;;;;1.38;0.90;;;;;;;10.15;55.19;102208.84;4997126;28;97337;-30
2023/04/27 08:14:25;;;;;;;3.08;1.20;;;;;;;10.20;56.28;102205.06;4997130;28;96711;-30
2023/04/27 08:16:53;;;;;;;2.28;1.25;;;;;;;10.29;57.01;102205.66;4997183;28;96848;-31
2023/04/27 08:19:18;;;;;;;1.77;1.00;;;;;;;10.32;55.54;102200.13;4996850;28;97829;-31
2023/04/27 08:21:43;;;;;;;2.70;0.93;;;;;;;10.53;55.68;102192.97;4997355;28;97283;-30
2023/04/27 08:24:09;;;;;;;2.15;1.20;;;;;;;10.72;55.51;102199.44;4997224;28;96732;-30
2023/04/27 08:26:34;;;;;;;4.18;1.15;;;;;;;10.86;55.58;102201.56;4996993;28;96849;-31
2023/04/27 08:29:01;;;;;;;1.55;0.90;;;;;;;11.00;54.46;102204.59;4996276;28;97952;-31
2023/04/27 08:31:26;;;;;;;1.80;0.93;;;;;;;11.01;53.53;102202.75;4995090;28;100794;-31
2023/04/27 08:33:52;;;;;;;1.77;0.98;;;;;;;11.09;54.74;102205.19;4996616;28;96751;-31
2023/04/27 08:36:23;;;;;;;2.38;0.93;;;;;;;11.10;54.79;102206.94;4994676;28;96776;-30
2023/04/27 08:38:49;;;;;;;1.25;0.85;;;;;;;11.18;53.42;102210.22;4994982;28;100900;-30
2023/04/27 08:41:20;;;;;;;1.38;1.08;;;;;;;11.21;52.37;102201.94;4995750;28;96531;-32
2023/04/27 08:43:48;;;;;;;1.63;0.88;;;;;;;11.35;53.38;102206.78;4995615;28;96684;-31
2023/04/27 08:46:20;;;;;;;1.13;1.02;;;;;;;11.36;51.65;102205.81;4995684;28;96805;-30
2023/04/27 08:48:48;;;;;;;1.60;1.00;;;;;;;11.27;52.34;102199.88;4995197;28;100874;-30
2023/04/27 08:51:14;;;;;;;0.82;0.70;;;;;;;11.25;51.84;102201.75;4996267;28;97871;-31
2023/04/27 08:53:47;;;;;;;1.38;1.08;;;;;;;11.12;52.20;102199.63;4995740;28;96734;-31
2023/04/27 08:56:12;;;;;;;4.13;0.88;;;;;;;11.04;51.59;102208.97;4995434;28;96731;-30
2023/04/27 08:58:38;;;;;;;1.83;0.93;;;;;;;11.00;52.79;102193.75;4996313;28;97981;-31
2023/04/27 09:01:07;;;;;;;1.33;0.93;;;;;;;11.10;50.79;102201.50;4996083;28;99472;-31
2023/04/27 09:03:35;;;;;;;1.23;0.80;;;;;;;11.19;51.32;102204.72;4994843;28;96642;-32
2023/04/27 09:06:04;;;;;;;0.90;0.63;;;;;;;11.30;48.71;102192.50;4996551;28;96789;-31
2023/04/27 09:08:50;;;;;;;1.67;1.00;;;;;;;11.53;50.69;102191.53;4994632;28;101167;-30
2023/04/27 09:11:28;;;;;;;2.47;1.25;;;;;;;11.68;50.91;102190.88;4994880;28;100677;-30
2023/04/27 09:13:53;;;;;;;1.88;1.10;;;;;;;11.77;52.16;102201.28;4996603;28;96599;-31
2023/04/27 09:16:23;;;;;;;0.95;0.90;;;;;;;11.79;52.01;102196.66;4996336;28;96732;-31
2023/04/27 09:18:49;;;;;;;2.30;1.48;;;;;;;11.82;50.89;102187.50;4994329;28;100465;-31
2023/04/27 09:21:28;;;;;;;1.35;0.88;;;;;;;12.04;49.97;102198.31;4994425;28;100918;-31
2023/04/27 09:23:54;;;;;;;1.75;1.20;;;;;;;12.14;50.04;102202.38;4994827;28;96650;-30
2023/04/27 09:26:22;;;;;;;3.40;1.38;;;;;;;12.22;50.72;102192.00;4994893;28;96883;-30
2023/04/27 09:28:50;;;;;;;2.47;1.33;;;;;;;12.37;51.17;102189.53;4994410;28;100515;-31
2023/04/27 09:31:16;;;;;;;1.67;1.17;;;;;;;12.44;49.60;102185.56;4994039;28;101125;-32
2023/04/27 09:33:43;;;;;;;1.55;0.80;;;;;;;12.59;50.00;102192.13;4994504;28;96600;-29
2023/04/27 09:36:08;;;;;;;5.72;1.80;;;;;;;12.67;49.76;102195.34;4995007;28;96934;-30
2023/04/27 09:38:34;;;;;;;3.65;1.13;;;;;;;12.62;47.90;102183.81;4994178;28;101210;-32
2023/04/27 09:40:59;;;;;;;1.27;0.82;;;;;;;12.46;47.60;102187.25;4995769;28;97824;-33
2023/04/27 09:43:27;;;;;;;2.20;1.30;;;;;;;12.46;49.36;102189.09;4995343;28;96527;-31
2023/04/27 09:45:53;;;;;;;2.25;1.05;;;;;;;12.70;48.97;102195.16;4994545;28;96863;-31
2023/04/27 09:48:21;;;;;;;2.67;1.13;;;;;;;12.72;46.74;102193.25;4993811;28;101031;-31
2023/04/27 09:50:48;;;;;;;3.55;1.50;;;;;;;12.71;48.99;102184.22;4994082;28;100766;-32
2023/04/27 09:53:16;;;;;;;2.00;1.23;;;;;;;12.79;47.36;102193.84;4994043;28;96820;-31
2023/04/27 09:56:07;;;;;;;1.42;1.08;;;;;;;12.95;48.23;102192.13;4994200;28;96813;-31
2023/04/27 09:58:57;;;;;;;1.52;1.08;;;;;;;12.96;47.37;102186.59;4995400;28;98250;-31
2023/04/27 10:01:37;;;;;;;4.88;1.75;;;;;;;12.88;49.30;102190.69;4995534;28;100112;-32
2023/04/27 10:04:30;;;;;;;2.58;1.55;;;;;;;13.09;46.79;102189.59;4994139;28;96787;-30
2023/04/27 10:07:08;;;;;;;1.23;0.82;;;;;;;13.22;47.67;102188.97;4996083;28;96867;-30
2023/04/27 10:09:36;;;;;;;3.60;1.30;;;;;;;13.29;45.01;102188.59;4993435;28;99116;-32
2023/04/27 10:12:32;;;;;;;2.85;1.35;;;;;;;13.55;46.92;102172.75;4993599;28;100939;-30
2023/04/27 10:14:59;;;;;;;2.85;1.17;;;;;;;13.60;44.14;102174.28;4994095;28;96712;-31
2023/04/27 10:17:30;;;;;;;2.42;1.05;;;;;;;13.70;44.56;102174.66;4993823;28;96918;-30
2023/04/27 10:19:57;;;;;;;2.25;1.55;;;;;;;13.93;47.22;102176.16;4993702;28;100787;-31
2023/04/27 10:22:23;;;;;;;3.08;1.88;;;;;;;13.87;46.27;102176.50;4993480;28;101142;-31
2023/04/27 10:24:50;;;;;;;2.63;1.40;;;;;;;14.06;44.56;102179.06;4993788;28;96725;-31
2023/04/27 10:27:20;;;;;;;2.25;1.42;;;;;;;14.25;44.69;102173.50;4995694;28;96827;-30
2023/04/27 10:29:46;;;;;;;1.20;0.90;;;;;;;14.40;45.80;102169.91;4993028;28;101028;-30
2023/04/27 10:32:20;;;;;;;2.65;1.45;;;;;;;14.62;44.05;102175.06;4993434;28;98795;-31
2023/04/27 10:34:47;;;;;;;1.60;1.05;;;;;;;14.44;41.74;102173.34;4992680;28;96836;-31
2023/04/27 10:37:14;;;;;;;3.05;1.45;;;;;;;14.52;43.40;102162.03;4993740;28;96830;-31
2023/04/27 10:39:41;;;;;;;4.60;1.55;;;;;;;14.64;42.56;102161.34;4993243;28;101189;-31
2023/04/27 10:42:07;;;;;;;3.67;2.30;;;;;;;14.68;43.89;102156.56;4994772;28;97443;-31
2023/04/27 10:44:34;;;;;;;2.60;1.27;;;;;;;14.44;43.93;102157.88;4993571;28;96526;-32
2023/04/27 10:47:11;;;;;;;1.80;1.23;;;;;;;14.62;43.27;102158.69;4993501;28;97099;-31
2023/04/27 10:49:37;;;;;;;3.17;1.85;;;;;;;14.74;42.97;102153.50;4993616;28;100820;-31
2023/04/27 10:52:03;;;;;;;3.17;1.60;;;;;;;14.63;42.85;102160.47;4994672;28;97910;-31
2023/04/27 10:54:30;;;;;;;2.95;1.55;;;;;;;14.68;40.12;102151.13;4993269;28;96801;-32
2023/04/27 10:57:06;;;;;;;2.30;1.27;;;;;;;14.86;42.09;102156.38;4995094;28;96774;-31
2023/04/27 10:59:32;;;;;;;2.83;1.77;;;;;;;14.96;42.91;102147.66;4993573;28;97899;-31
2023/04/27 11:01:58;;;;;;;3.53;1.70;;;;;;;14.96;41.96;102145.81;4992989;28;101049;-32
2023/04/27 11:04:34;;;;;;;4.00;1.77;;;;;;;15.12;42.13;102145.78;4994925;28;96457;-31
2023/04/27 11:07:00;;;;;;;2.58;1.42;;;;;;;15.16;42.99;102139.16;4993357;28;96736;-32
2023/04/27 11:09:26;;;;;;;2.47;1.40;;;;;;;15.32;41.80;102136.38;4993057;28;100953;-31
2023/04/27 11:11:52;;;;;;;2.72;1.55;;;;;;;15.33;42.24;102143.59;4992820;28;101169;-31
2023/04/27 11:14:20;;;;;;;2.78;1.60;;;;;;;15.42;41.96;102132.13;4994612;28;96431;-31
2023/04/27 11:16:48;;;;;;;2.92;1.48;;;;;;;15.58;42.74;102132.03;4994980;28;96765;-32
2023/04/27 11:19:14;;;;;;;2.85;1.45;;;;;;;15.55;40.69;102132.25;4994638;28;97809;-32
2023/04/27 11:21:40;;;;;;;3.30;1.65;;;;;;;15.64;40.28;102137.13;4994379;28;97932;-32
2023/04/27 11:24:07;;;;;;;4.00;2.00;;;;;;;15.77;40.00;102129.06;4992575;28;96501;-31
2023/04/27 11:26:32;;;;;;;3.70;1.70;;;;;;;15.73;39.62;102130.25;4993201;28;96784;-31